Time;durP1;ratioP1;P1;durP2;ratioP2;P2;SDS_P1;SDS_P2;PMS_P1;PMS_P2;Temp;Humidity;BMP_temperature;BMP_pressure;BME280_temperature;BME280_humidity;BME280_pressure;Samples;Min_cycle;Max_cycle;Signal;HPM_P1;HPM_P2
2022/07/17 00:01:32;;;;;;;3.22;2.53;;;13.30;99.90;;;;;;5095195;28;20190;-67
2022/07/17 00:03:58;;;;;;;6.03;2.40;;;13.30;99.90;;;;;;5095274;28;20181;-67
2022/07/17 00:06:24;;;;;;;5.07;2.60;;;13.30;99.90;;;;;;5095095;28;20183;-67
2022/07/17 00:08:50;;;;;;;3.80;2.47;;;13.30;99.90;;;;;;5094784;28;20256;-67
2022/07/17 00:11:15;;;;;;;3.55;2.65;;;13.20;99.90;;;;;;5094952;28;20623;-67
2022/07/17 00:13:41;;;;;;;3.97;2.80;;;13.30;99.90;;;;;;5095178;28;20240;-67
2022/07/17 00:16:07;;;;;;;3.25;2.65;;;13.20;99.90;;;;;;5095439;28;20227;-67
2022/07/17 00:18:33;;;;;;;4.40;2.70;;;13.20;99.90;;;;;;5095918;28;20193;-67
2022/07/17 00:20:59;;;;;;;3.58;2.40;;;13.10;99.90;;;;;;5096255;28;20686;-67
2022/07/17 00:23:25;;;;;;;2.60;2.40;;;13.10;99.90;;;;;;5097131;28;20177;-66
2022/07/17 00:25:50;;;;;;;5.70;2.50;;;13.10;99.90;;;;;;5096592;28;20184;-67
2022/07/17 00:28:16;;;;;;;4.90;2.70;;;13.10;99.90;;;;;;5096430;28;20188;-67
2022/07/17 00:30:42;;;;;;;5.07;2.58;;;13.00;99.90;;;;;;5095003;28;20333;-67
2022/07/17 00:33:08;;;;;;;6.47;3.45;;;13.00;99.90;;;;;;5093681;28;20276;-67
2022/07/17 00:35:33;;;;;;;4.30;3.15;;;13.00;99.90;;;;;;5094610;28;20541;-67
2022/07/17 00:37:59;;;;;;;6.70;3.72;;;13.00;99.90;;;;;;5094836;28;20218;-67
2022/07/17 00:40:25;;;;;;;3.63;2.80;;;13.00;99.90;;;;;;5094333;28;20275;-71
2022/07/17 00:42:52;;;;;;;4.88;3.05;;;12.90;99.90;;;;;;5094567;28;20580;-71
2022/07/17 00:45:18;;;;;;;3.53;2.88;;;12.90;99.90;;;;;;5094953;28;20606;-71
2022/07/17 00:47:56;;;;;;;3.53;2.58;;;12.90;99.90;;;;;;5094593;28;20177;-71
2022/07/17 00:50:31;;;;;;;4.35;2.80;;;12.90;99.90;;;;;;5094268;28;20545;-71
2022/07/17 00:52:57;;;;;;;3.70;2.60;;;12.90;99.90;;;;;;5092815;28;20212;-72
2022/07/17 00:55:24;;;;;;;4.60;3.00;;;12.80;99.90;;;;;;5094263;28;20169;-71
2022/07/17 00:57:51;;;;;;;3.38;2.45;;;12.80;99.90;;;;;;5094380;28;20246;-71
2022/07/17 01:00:17;;;;;;;5.60;2.42;;;12.70;99.90;;;;;;5093296;28;20205;-71
2022/07/17 01:02:48;;;;;;;3.25;2.53;;;12.60;99.90;;;;;;5094875;28;20183;-71
2022/07/17 01:05:15;;;;;;;2.97;2.50;;;12.60;99.90;;;;;;5094180;28;20548;-71
2022/07/17 01:07:41;;;;;;;5.07;2.75;;;12.50;99.90;;;;;;5092878;28;20646;-72
2022/07/17 01:10:07;;;;;;;3.57;2.80;;;12.50;99.90;;;;;;5094039;28;20193;-71
2022/07/17 01:12:34;;;;;;;3.88;2.67;;;12.50;99.90;;;;;;5094247;28;20200;-71
2022/07/17 01:15:00;;;;;;;2.60;2.40;;;12.50;99.90;;;;;;5094311;28;20539;-71
2022/07/17 01:17:26;;;;;;;4.88;2.67;;;12.40;99.90;;;;;;5093989;28;20634;-71
2022/07/17 01:19:52;;;;;;;4.57;2.88;;;12.40;99.90;;;;;;5094151;28;20181;-71
2022/07/17 01:22:19;;;;;;;3.72;2.95;;;12.40;99.90;;;;;;5092710;28;20641;-71
2022/07/17 01:24:45;;;;;;;3.67;2.88;;;12.40;99.90;;;;;;5093720;28;20169;-71
2022/07/17 01:27:11;;;;;;;5.20;2.70;;;12.40;99.90;;;;;;5094475;28;20165;-71
2022/07/17 01:29:38;;;;;;;5.47;2.88;;;12.30;99.90;;;;;;5094191;28;20173;-72
2022/07/17 01:32:05;;;;;;;4.72;2.88;;;12.30;99.90;;;;;;5094302;28;20291;-71
2022/07/17 01:34:31;;;;;;;3.42;2.63;;;12.20;99.90;;;;;;5094040;28;20636;-71
2022/07/17 01:36:57;;;;;;;5.95;2.80;;;12.10;99.90;;;;;;5094463;28;20169;-71
2022/07/17 01:42:07;;;;;;;4.18;2.88;;;12.10;99.90;;;;;;5094104;28;20569;-71
2022/07/17 01:44:33;;;;;;;3.22;2.88;;;12.10;99.90;;;;;;5097127;28;20548;-71
2022/07/17 01:46:59;;;;;;;4.88;3.22;;;12.00;99.90;;;;;;5098355;28;20180;-71
2022/07/17 01:49:25;;;;;;;4.35;3.00;;;12.00;99.90;;;;;;5096561;28;20560;-71
2022/07/17 01:51:51;;;;;;;5.00;2.65;;;11.90;99.90;;;;;;5097673;28;20197;-71
2022/07/17 01:54:17;;;;;;;2.75;2.55;;;11.80;99.90;;;;;;5098610;28;20544;-71
2022/07/17 01:56:42;;;;;;;5.28;2.80;;;11.70;99.90;;;;;;5098826;28;20173;-71
2022/07/17 01:59:08;;;;;;;2.97;2.63;;;11.70;99.90;;;;;;5098320;28;20192;-72
2022/07/17 02:01:34;;;;;;;5.97;3.00;;;11.70;99.90;;;;;;5098278;28;20287;-71
2022/07/17 02:04:00;;;;;;;5.80;2.70;;;11.70;99.90;;;;;;5098316;28;20215;-71
2022/07/17 02:06:26;;;;;;;3.60;2.73;;;11.70;99.90;;;;;;5097758;28;20188;-71
2022/07/17 02:08:52;;;;;;;4.32;2.88;;;11.70;99.90;;;;;;5097715;28;20228;-71
2022/07/17 02:11:18;;;;;;;3.67;2.80;;;11.70;99.90;;;;;;5097614;28;20203;-71
2022/07/17 02:13:44;;;;;;;6.27;3.77;;;11.70;99.90;;;;;;5097437;28;20223;-71
2022/07/17 02:16:10;;;;;;;3.73;2.87;;;11.70;99.90;;;;;;5097582;28;20176;-71
2022/07/17 02:18:35;;;;;;;3.97;3.27;;;11.60;99.90;;;;;;5095932;28;20196;-71
2022/07/17 02:21:02;;;;;;;5.73;4.07;;;11.60;99.90;;;;;;5097287;28;20571;-71
2022/07/17 02:23:28;;;;;;;4.20;2.60;;;11.50;99.90;;;;;;5095926;28;20181;-71
2022/07/17 02:25:54;;;;;;;6.13;3.40;;;11.50;99.90;;;;;;5095962;28;20331;-71
2022/07/17 02:28:20;;;;;;;3.87;2.90;;;11.40;99.90;;;;;;5097433;28;20187;-71
2022/07/17 02:30:46;;;;;;;6.37;2.90;;;11.40;99.90;;;;;;5096991;28;20201;-71
2022/07/17 02:33:12;;;;;;;6.67;3.10;;;11.30;99.90;;;;;;5095906;28;20602;-71
2022/07/17 02:35:38;;;;;;;4.33;2.80;;;11.30;99.90;;;;;;5096951;28;20235;-71
2022/07/17 02:38:04;;;;;;;4.60;2.90;;;11.30;99.90;;;;;;5096915;28;20219;-71
2022/07/17 02:40:30;;;;;;;4.33;2.77;;;11.20;99.90;;;;;;5095864;28;20563;-71
2022/07/17 02:42:56;;;;;;;3.40;2.83;;;11.20;99.90;;;;;;5095647;28;20185;-71
2022/07/17 02:45:24;;;;;;;4.83;3.17;;;11.30;99.90;;;;;;5096678;28;20181;-71
2022/07/17 02:47:51;;;;;;;4.23;3.20;;;11.30;99.90;;;;;;5096646;28;20177;-71
2022/07/17 02:50:17;;;;;;;4.63;3.27;;;11.30;99.90;;;;;;5096594;28;20714;-71
2022/07/17 02:52:43;;;;;;;7.30;2.90;;;11.30;99.90;;;;;;5096858;28;20204;-71
2022/07/17 02:55:10;;;;;;;4.60;3.07;;;11.20;99.90;;;;;;5095643;28;20551;-71
2022/07/17 02:57:37;;;;;;;6.23;3.13;;;11.10;99.90;;;;;;5098943;28;20185;-71
2022/07/17 03:00:09;;;;;;;3.27;2.83;;;11.10;99.90;;;;;;5097631;28;20180;-68
2022/07/17 03:02:35;;;;;;;3.27;2.63;;;11.10;99.90;;;;;;5096263;28;20181;-68
2022/07/17 03:05:00;;;;;;;4.73;3.20;;;10.90;99.90;;;;;;5096405;28;20656;-68
2022/07/17 03:07:27;;;;;;;3.43;3.10;;;10.80;99.90;;;;;;5096367;28;20260;-68
2022/07/17 03:09:53;;;;;;;4.27;2.83;;;10.80;99.90;;;;;;5095921;28;20247;-69
2022/07/17 03:12:18;;;;;;;5.20;3.27;;;10.90;99.90;;;;;;5094752;28;20213;-68
2022/07/17 03:14:44;;;;;;;3.43;2.93;;;10.80;99.90;;;;;;5095991;28;20250;-69
2022/07/17 03:17:10;;;;;;;3.73;3.00;;;10.80;99.90;;;;;;5094867;28;20525;-70
2022/07/17 03:19:36;;;;;;;3.87;3.03;;;10.80;99.90;;;;;;5096085;28;20196;-69
2022/07/17 03:22:02;;;;;;;6.33;3.10;;;10.80;99.90;;;;;;5095951;28;20262;-69
2022/07/17 03:24:28;;;;;;;3.50;3.13;;;10.80;99.90;;;;;;5096135;28;20263;-69
2022/07/17 03:26:53;;;;;;;4.20;3.17;;;10.80;99.90;;;;;;5094655;28;20216;-69
2022/07/17 03:29:19;;;;;;;3.37;3.03;;;10.70;99.90;;;;;;5095896;28;20177;-68
2022/07/17 03:31:46;;;;;;;3.60;3.20;;;10.60;99.90;;;;;;5095665;28;20292;-69
2022/07/17 03:34:12;;;;;;;4.37;2.70;;;10.60;99.90;;;;;;5095543;28;20209;-70
2022/07/17 03:36:38;;;;;;;5.20;2.70;;;10.60;99.90;;;;;;5095569;28;20173;-69
2022/07/17 03:39:04;;;;;;;4.63;2.70;;;10.50;99.90;;;;;;5095554;28;20165;-69
2022/07/17 03:41:30;;;;;;;5.50;3.13;;;10.50;99.90;;;;;;5095422;28;20199;-69
2022/07/17 03:43:56;;;;;;;3.47;2.83;;;10.50;99.90;;;;;;5095619;28;20189;-69
2022/07/17 03:46:22;;;;;;;5.10;2.67;;;10.60;99.90;;;;;;5095935;28;20263;-69
2022/07/17 03:48:48;;;;;;;5.17;3.10;;;10.60;99.90;;;;;;5094085;28;20224;-69
2022/07/17 03:51:14;;;;;;;4.37;3.23;;;10.60;99.90;;;;;;5095687;28;20192;-68
2022/07/17 03:53:40;;;;;;;5.23;3.40;;;10.60;99.90;;;;;;5095323;28;20197;-69
2022/07/17 03:56:05;;;;;;;6.83;3.30;;;10.60;99.90;;;;;;5095369;28;20181;-69
2022/07/17 03:58:32;;;;;;;6.23;3.70;;;10.60;99.90;;;;;;5093897;28;20177;-69
2022/07/17 04:00:58;;;;;;;6.30;3.37;;;10.60;99.90;;;;;;5095159;28;20669;-69
2022/07/17 04:03:24;;;;;;;3.53;3.10;;;10.50;99.90;;;;;;5093862;28;20587;-69
2022/07/17 04:05:50;;;;;;;4.93;3.43;;;10.50;99.90;;;;;;5095191;28;20573;-69
2022/07/17 04:08:16;;;;;;;4.47;2.90;;;10.60;99.90;;;;;;5095321;28;20185;-69
2022/07/17 04:10:42;;;;;;;5.13;3.20;;;10.50;99.90;;;;;;5095240;28;20208;-69
2022/07/17 04:13:08;;;;;;;5.37;3.43;;;10.50;99.90;;;;;;5095211;28;20245;-69
2022/07/17 04:15:49;;;;;;;5.30;3.23;;;10.40;99.90;;;;;;5095525;28;20173;-69
2022/07/17 04:18:29;;;;;;;5.43;3.00;;;10.40;99.90;;;;;;5094900;28;20189;-69
2022/07/17 04:20:58;;;;;;;4.23;3.40;;;10.30;99.90;;;;;;5094859;28;20242;-69
2022/07/17 04:23:23;;;;;;;4.13;3.40;;;10.40;99.90;;;;;;5095455;28;20188;-69
2022/07/17 04:25:49;;;;;;;4.73;3.30;;;10.50;99.90;;;;;;5094448;28;20176;-69
2022/07/17 04:28:16;;;;;;;5.13;3.33;;;10.50;99.90;;;;;;5093474;28;20173;-69
2022/07/17 04:30:42;;;;;;;5.80;4.10;;;10.70;99.90;;;;;;5093294;28;20193;-69
2022/07/17 04:33:08;;;;;;;6.73;3.90;;;10.80;99.90;;;;;;5094836;28;20219;-69
2022/07/17 04:35:35;;;;;;;6.60;4.07;;;10.90;99.90;;;;;;5094475;28;20703;-69
2022/07/17 04:38:01;;;;;;;9.47;4.03;;;11.00;99.90;;;;;;5094418;28;20184;-69
2022/07/17 04:40:27;;;;;;;8.33;3.93;;;11.00;99.90;;;;;;5094085;28;20190;-69
2022/07/17 04:42:53;;;;;;;5.40;3.70;;;11.10;99.90;;;;;;5094648;28;20173;-69
2022/07/17 04:45:19;;;;;;;6.27;4.00;;;11.10;99.90;;;;;;5094322;28;20191;-69
2022/07/17 04:47:45;;;;;;;7.73;4.17;;;11.10;99.90;;;;;;5094866;28;20177;-69
2022/07/17 04:50:11;;;;;;;6.60;4.30;;;11.20;99.90;;;;;;5108396;28;20752;-69
2022/07/17 04:52:37;;;;;;;7.83;4.13;;;11.20;99.90;;;;;;5114880;28;20206;-69
2022/07/17 04:55:03;;;;;;;8.40;4.30;;;11.20;99.90;;;;;;5114226;28;20176;-69
2022/07/17 04:57:29;;;;;;;6.23;3.90;;;11.20;99.90;;;;;;5114402;28;20541;-69
2022/07/17 04:59:55;;;;;;;7.23;4.00;;;11.20;99.90;;;;;;5114400;28;20168;-69
2022/07/17 05:02:20;;;;;;;8.53;4.07;;;11.20;99.90;;;;;;5114417;28;20207;-69
2022/07/17 05:04:47;;;;;;;6.33;4.00;;;11.30;99.90;;;;;;5114428;28;20208;-69
2022/07/17 05:07:13;;;;;;;6.23;4.00;;;11.30;99.90;;;;;;5114369;28;20190;-69
2022/07/17 05:09:39;;;;;;;6.83;4.30;;;11.40;99.90;;;;;;5114294;28;20543;-69
2022/07/17 05:12:05;;;;;;;8.60;4.40;;;11.40;99.90;;;;;;5114068;28;20207;-69
2022/07/17 05:14:31;;;;;;;6.77;4.27;;;11.40;99.90;;;;;;5112892;28;20208;-69
2022/07/17 05:16:57;;;;;;;7.30;4.70;;;11.40;99.90;;;;;;5114172;28;20585;-69
2022/07/17 05:19:23;;;;;;;7.17;4.67;;;11.50;99.90;;;;;;5113396;28;20274;-69
2022/07/17 05:21:49;;;;;;;7.37;4.70;;;11.50;99.90;;;;;;5113727;28;20226;-69
2022/07/17 05:24:15;;;;;;;9.70;4.90;;;11.50;99.90;;;;;;5114181;28;20183;-69
2022/07/17 05:26:41;;;;;;;7.97;4.60;;;11.60;99.90;;;;;;5113890;28;20177;-69
2022/07/17 05:29:07;;;;;;;6.23;4.40;;;11.60;99.90;;;;;;5113843;28;20528;-69
2022/07/17 05:31:33;;;;;;;6.87;4.33;;;11.70;99.90;;;;;;5113959;28;20206;-69
2022/07/17 05:33:59;;;;;;;7.67;4.70;;;11.70;99.90;;;;;;5113904;28;20208;-69
2022/07/17 05:36:25;;;;;;;6.20;4.57;;;11.80;99.90;;;;;;5114399;28;20163;-69
2022/07/17 05:38:51;;;;;;;7.30;4.73;;;11.90;99.90;;;;;;5113987;28;20247;-70
2022/07/17 05:41:17;;;;;;;8.00;4.50;;;12.00;99.90;;;;;;5114138;28;20188;-69
2022/07/17 05:43:43;;;;;;;8.00;4.37;;;12.10;99.90;;;;;;5112706;28;20644;-69
2022/07/17 05:46:08;;;;;;;6.57;4.60;;;12.20;99.90;;;;;;5114176;28;20188;-70
2022/07/17 05:48:34;;;;;;;7.17;3.90;;;12.20;99.90;;;;;;5114142;28;20184;-70
2022/07/17 05:51:00;;;;;;;6.90;4.00;;;12.30;99.90;;;;;;5112844;28;20200;-70
2022/07/17 05:53:26;;;;;;;7.17;4.40;;;12.40;99.90;;;;;;5114194;28;20207;-70
2022/07/17 05:55:52;;;;;;;7.83;4.63;;;12.50;99.90;;;;;;5112530;28;20169;-70
2022/07/17 05:58:18;;;;;;;4.77;4.27;;;12.60;99.90;;;;;;5114081;28;20214;-70
2022/07/17 06:00:44;;;;;;;6.85;4.20;;;12.70;99.90;;;;;;5114429;28;20238;-70
2022/07/17 06:03:11;;;;;;;6.63;4.47;;;12.80;99.90;;;;;;5114512;28;20165;-70
2022/07/17 06:05:37;;;;;;;6.83;4.17;;;13.00;99.90;;;;;;5114033;28;20204;-70
2022/07/17 06:08:03;;;;;;;6.25;3.80;;;13.00;99.90;;;;;;5113964;28;20617;-70
2022/07/17 06:10:29;;;;;;;7.07;4.22;;;13.10;99.90;;;;;;5113718;28;20220;-70
2022/07/17 06:12:56;;;;;;;6.50;4.13;;;13.20;99.90;;;;;;5114120;28;20234;-69
2022/07/17 06:15:23;;;;;;;7.55;3.97;;;13.20;99.90;;;;;;5113937;28;20700;-70
2022/07/17 06:17:50;;;;;;;5.57;3.65;;;13.30;99.90;;;;;;5112334;28;20203;-70
2022/07/17 06:20:17;;;;;;;7.72;3.75;;;13.40;99.90;;;;;;5113458;28;20200;-69
2022/07/17 06:22:43;;;;;;;5.78;3.47;;;13.50;99.90;;;;;;5113575;28;20596;-69
2022/07/17 06:25:10;;;;;;;5.93;4.10;;;13.50;99.90;;;;;;5112144;28;20191;-69
2022/07/17 06:27:39;;;;;;;6.07;4.00;;;13.70;99.90;;;;;;5113731;28;20177;-69
2022/07/17 06:30:06;;;;;;;6.65;3.40;;;13.70;99.90;;;;;;5112734;28;20261;-69
2022/07/17 06:32:32;;;;;;;6.28;3.40;;;13.80;99.90;;;;;;5116132;28;20210;-69
2022/07/17 06:34:58;;;;;;;4.72;3.33;;;13.90;99.90;;;;;;5117487;28;20177;-70
2022/07/17 06:37:24;;;;;;;4.78;3.25;;;13.90;99.90;;;;;;5115939;28;20173;-69
2022/07/17 06:39:50;;;;;;;4.80;3.20;;;14.10;99.90;;;;;;5115598;28;20190;-69
2022/07/17 06:42:15;;;;;;;3.17;2.80;;;14.20;99.90;;;;;;5117365;28;20176;-69
2022/07/17 06:44:41;;;;;;;5.20;2.83;;;14.40;99.90;;;;;;5117216;28;20176;-69
2022/07/17 06:47:07;;;;;;;5.70;3.03;;;14.50;99.90;;;;;;5116946;28;20176;-69
2022/07/17 06:49:32;;;;;;;3.00;2.70;;;14.60;99.90;;;;;;5116941;28;20188;-69
2022/07/17 06:51:58;;;;;;;6.25;3.28;;;14.70;99.90;;;;;;5115322;28;20199;-70
2022/07/17 06:54:25;;;;;;;3.58;2.72;;;14.80;99.90;;;;;;5116649;28;20168;-69
2022/07/17 06:56:55;;;;;;;3.15;2.60;;;14.80;99.90;;;;;;5118140;28;20160;-71
2022/07/17 06:59:21;;;;;;;5.95;3.13;;;15.00;99.90;;;;;;5115410;28;20581;-71
2022/07/17 07:01:47;;;;;;;3.78;2.58;;;15.00;99.90;;;;;;5117711;28;20191;-69
2022/07/17 07:04:13;;;;;;;3.38;2.47;;;15.10;99.90;;;;;;5117278;28;20633;-71
2022/07/17 07:06:39;;;;;;;4.55;2.72;;;15.20;99.90;;;;;;5117545;27;20165;-72
2022/07/17 07:09:05;;;;;;;4.80;2.58;;;15.40;99.90;;;;;;5116079;28;20184;-71
2022/07/17 07:11:31;;;;;;;5.65;2.60;;;15.50;99.90;;;;;;5116142;28;20204;-71
2022/07/17 07:13:57;;;;;;;3.28;2.35;;;15.60;99.90;;;;;;5116818;28;20196;-72
2022/07/17 07:16:23;;;;;;;3.80;2.60;;;15.70;99.90;;;;;;5116577;28;20180;-72
2022/07/17 07:18:48;;;;;;;2.70;2.30;;;15.80;99.90;;;;;;5116469;28;20196;-71
2022/07/17 07:21:14;;;;;;;5.43;2.65;;;15.90;99.90;;;;;;5116390;28;20280;-71
2022/07/17 07:23:40;;;;;;;5.43;3.10;;;16.00;99.90;;;;;;5116376;28;20207;-71
2022/07/17 07:26:06;;;;;;;6.78;2.67;;;16.20;99.90;;;;;;5114731;28;20214;-71
2022/07/17 07:28:33;;;;;;;4.82;2.65;;;16.30;99.90;;;;;;5114964;28;20632;-72
2022/07/17 07:30:59;;;;;;;2.72;2.10;;;16.40;99.90;;;;;;5116329;28;20197;-71
2022/07/17 07:33:24;;;;;;;6.25;2.50;;;16.50;99.90;;;;;;5116264;28;20202;-71
2022/07/17 07:35:50;;;;;;;4.72;2.30;;;16.60;99.90;;;;;;5116302;28;20179;-71
2022/07/17 07:38:16;;;;;;;6.45;2.28;;;16.70;99.90;;;;;;5114714;28;20633;-71
2022/07/17 07:40:42;;;;;;;4.28;2.33;;;16.80;99.90;;;;;;5115158;28;20194;-71
2022/07/17 07:43:08;;;;;;;3.53;2.00;;;16.90;99.90;;;;;;5115662;28;20583;-71
2022/07/17 07:45:34;;;;;;;2.67;2.10;;;17.00;99.90;;;;;;5116007;28;20185;-71
2022/07/17 07:48:00;;;;;;;4.13;2.20;;;17.10;99.90;;;;;;5114424;28;20180;-71
2022/07/17 07:50:26;;;;;;;3.90;2.25;;;17.20;99.90;;;;;;5115568;28;20571;-73
2022/07/17 07:52:53;;;;;;;3.80;2.00;;;17.20;99.90;;;;;;5115601;28;20637;-73
2022/07/17 07:55:20;;;;;;;2.33;2.00;;;17.20;99.90;;;;;;5115443;28;20221;-73
2022/07/17 07:57:49;;;;;;;4.90;2.20;;;17.30;99.90;;;;;;5115838;28;20172;-73
2022/07/17 08:00:16;;;;;;;5.90;2.40;;;17.40;99.90;;;;;;5115428;28;20188;-73
2022/07/17 08:02:42;;;;;;;4.45;2.55;;;17.40;99.90;;;;;;5115448;28;20591;-73
2022/07/17 08:05:08;;;;;;;6.43;2.33;;;17.50;99.90;;;;;;5115644;28;20172;-73
2022/07/17 08:07:36;;;;;;;5.63;2.28;;;17.60;99.90;;;;;;5115294;28;20226;-73
2022/07/17 08:10:02;;;;;;;3.60;1.92;;;17.60;99.90;;;;;;5114989;28;20172;-73
2022/07/17 08:12:28;;;;;;;2.30;2.08;;;17.70;99.90;;;;;;5115225;28;20200;-73
2022/07/17 08:14:54;;;;;;;4.78;2.05;;;17.80;99.90;;;;;;5115368;28;20245;-73
2022/07/17 08:17:20;;;;;;;4.05;2.25;;;17.90;99.90;;;;;;5115228;28;20648;-73
2022/07/17 08:19:46;;;;;;;4.05;1.80;;;18.00;99.90;;;;;;5115251;28;20176;-73
2022/07/17 08:22:12;;;;;;;3.08;2.00;;;18.20;99.90;;;;;;5115008;28;20204;-73
2022/07/17 08:24:38;;;;;;;3.85;2.13;;;18.40;99.90;;;;;;5114875;28;20169;-72
2022/07/17 08:27:04;;;;;;;4.72;2.05;;;18.50;99.90;;;;;;5113794;28;20176;-73
2022/07/17 08:29:30;;;;;;;5.05;2.08;;;18.70;99.90;;;;;;5115503;28;20169;-73
2022/07/17 08:31:58;;;;;;;4.03;1.70;;;18.90;99.90;;;;;;5115318;28;20191;-73
2022/07/17 08:34:24;;;;;;;8.27;2.15;;;18.90;99.90;;;;;;5113993;28;20276;-73
2022/07/17 08:36:50;;;;;;;6.53;1.60;;;19.00;99.90;;;;;;5116832;28;20605;-73
2022/07/17 08:39:16;;;;;;;7.07;2.42;;;19.10;99.90;;;;;;5115813;28;20180;-72
2022/07/17 08:41:42;;;;;;;2.55;1.80;;;19.10;99.90;;;;;;5114340;28;20200;-73
2022/07/17 08:44:08;;;;;;;4.28;2.00;;;19.20;99.90;;;;;;5113824;28;20237;-73
2022/07/17 08:46:38;;;;;;;6.38;2.30;;;19.40;99.90;;;;;;5114784;28;20203;-73
2022/07/17 08:49:06;;;;;;;3.65;1.95;;;19.40;99.90;;;;;;5114901;28;20180;-73
2022/07/17 08:51:32;;;;;;;4.75;1.80;;;19.60;99.90;;;;;;5114629;28;20653;-73
2022/07/17 08:53:59;;;;;;;3.05;1.75;;;19.60;99.90;;;;;;5113738;28;20221;-73
2022/07/17 08:56:25;;;;;;;3.83;1.70;;;19.70;99.90;;;;;;5113037;28;20172;-72
2022/07/17 08:58:52;;;;;;;5.15;1.95;;;19.80;99.90;;;;;;5114490;28;20629;-73
2022/07/17 09:01:19;;;;;;;3.03;1.80;;;19.90;99.90;;;;;;5114288;28;20184;-72
2022/07/17 09:04:07;;;;;;;4.47;2.00;;;20.00;99.90;;;;;;5114677;28;20251;-73
2022/07/17 09:06:34;;;;;;;4.03;1.73;;;20.10;99.90;;;;;;5114950;28;20164;-73
2022/07/17 09:09:09;;;;;;;2.33;1.90;;;20.30;99.90;;;;;;5114741;28;20172;-73
2022/07/17 09:12:03;;;;;;;3.88;2.00;;;20.40;99.90;;;;;;5113893;28;20275;-73
2022/07/17 09:14:40;;;;;;;2.60;1.75;;;20.60;99.90;;;;;;5112810;28;20192;-73
2022/07/17 09:17:07;;;;;;;5.70;1.77;;;20.80;99.90;;;;;;5114312;28;20530;-73
2022/07/17 09:19:36;;;;;;;9.63;2.28;;;20.90;99.90;;;;;;5114295;28;20176;-73
2022/07/17 09:22:16;;;;;;;5.28;1.98;;;21.10;99.90;;;;;;5113910;28;20199;-73
2022/07/17 09:24:53;;;;;;;6.25;2.00;;;21.20;99.90;;;;;;5114347;28;20226;-72
2022/07/17 09:27:24;;;;;;;5.97;2.28;;;21.40;99.90;;;;;;5113986;28;20163;-73
2022/07/17 09:30:09;;;;;;;4.28;1.85;;;21.50;99.90;;;;;;5112704;28;20176;-74
2022/07/17 09:32:39;;;;;;;3.67;1.70;;;21.50;99.90;;;;;;5112610;28;20191;-73
2022/07/17 09:35:10;;;;;;;3.75;1.95;;;21.60;99.90;;;;;;5112864;28;20179;-73
2022/07/17 09:37:37;;;;;;;6.95;2.67;;;21.70;99.90;;;;;;5114257;28;20164;-73
2022/07/17 09:40:10;;;;;;;7.70;1.90;;;21.90;99.90;;;;;;5112282;28;20180;-73
2022/07/17 09:42:35;;;;;;;3.10;1.70;;;22.20;99.90;;;;;;5114193;28;20168;-74
2022/07/17 09:45:08;;;;;;;5.05;1.80;;;22.40;99.90;;;;;;5114333;28;20161;-70
2022/07/17 09:47:38;;;;;;;4.50;2.00;;;22.60;99.90;;;;;;5114070;28;20168;-69
2022/07/17 09:50:06;;;;;;;3.30;1.80;;;22.60;99.90;;;;;;5113661;28;20182;-69
2022/07/17 09:52:34;;;;;;;4.70;1.67;;;22.50;99.90;;;;;;5113580;28;20208;-69
2022/07/17 09:55:01;;;;;;;2.53;1.50;;;22.30;99.90;;;;;;5112186;28;20515;-69
2022/07/17 09:57:30;;;;;;;2.13;1.48;;;22.50;99.90;;;;;;5113663;28;20165;-69
2022/07/17 10:00:02;;;;;;;4.10;1.90;;;22.70;99.90;;;;;;5113842;28;20177;-70
2022/07/17 10:02:28;;;;;;;5.80;2.38;;;22.80;99.90;;;;;;5114473;28;20554;-70
2022/07/17 10:04:54;;;;;;;3.53;1.95;;;22.90;99.90;;;;;;5115742;28;20172;-70
2022/07/17 10:07:21;;;;;;;6.85;2.30;;;22.70;99.90;;;;;;5117625;28;20216;-69
2022/07/17 10:09:47;;;;;;;3.08;1.70;;;22.80;99.90;;;;;;5117579;28;20196;-69
2022/07/17 10:12:14;;;;;;;3.67;1.50;;;22.90;99.90;;;;;;5117430;28;20687;-69
2022/07/17 10:14:41;;;;;;;5.35;1.92;;;23.10;99.90;;;;;;5117505;28;20255;-69
2022/07/17 10:17:11;;;;;;;2.83;1.65;;;23.20;99.90;;;;;;5117425;28;20173;-70
2022/07/17 10:19:57;;;;;;;6.72;1.80;;;23.40;99.90;;;;;;5117688;28;20172;-69
2022/07/17 10:22:24;;;;;;;3.90;1.60;;;23.40;99.90;;;;;;5117410;28;20217;-69
2022/07/17 10:24:55;;;;;;;3.55;1.60;;;23.50;99.90;;;;;;5117386;28;20180;-70
2022/07/17 10:27:25;;;;;;;3.80;1.50;;;23.60;99.90;;;;;;5117479;28;20201;-69
2022/07/17 10:30:08;;;;;;;1.50;1.40;;;23.70;99.90;;;;;;5117425;28;20196;-69
2022/07/17 10:32:35;;;;;;;2.20;1.33;;;23.70;99.90;;;;;;5117721;28;20191;-69
2022/07/17 10:35:10;;;;;;;3.28;1.63;;;23.70;99.90;;;;;;5117402;28;20570;-68
2022/07/17 10:37:35;;;;;;;3.38;1.60;;;23.90;99.90;;;;;;5116749;28;20172;-71
2022/07/17 10:40:19;;;;;;;5.68;1.60;;;24.00;99.90;;;;;;5117068;28;20149;-69
2022/07/17 10:42:53;;;;;;;1.48;1.33;;;24.00;99.90;;;;;;5118546;28;20603;-68
2022/07/17 10:45:39;;;;;;;4.55;2.05;;;24.00;99.90;;;;;;5118300;28;20589;-70
2022/07/17 10:48:09;;;;;;;3.75;1.85;;;24.00;99.90;;;;;;5117335;28;20196;-71
2022/07/17 10:50:38;;;;;;;7.63;2.05;;;24.10;99.90;;;;;;5116900;28;20200;-71
2022/07/17 10:53:10;;;;;;;4.28;1.70;;;24.10;99.90;;;;;;5117428;28;20663;-72
2022/07/17 10:55:41;;;;;;;5.30;2.10;;;24.00;99.90;;;;;;5117002;28;20161;-72
2022/07/17 10:58:15;;;;;;;5.13;1.73;;;24.10;99.90;;;;;;5117862;28;20156;-72
2022/07/17 11:00:41;;;;;;;4.55;1.85;;;24.00;99.90;;;;;;5115979;28;20203;-72
2022/07/17 11:03:11;;;;;;;2.13;1.50;;;24.20;99.90;;;;;;5117701;28;20176;-72
2022/07/17 11:05:37;;;;;;;5.57;1.52;;;24.30;99.90;;;;;;5117568;28;20176;-72
2022/07/17 11:08:08;;;;;;;5.70;1.52;;;24.40;99.90;;;;;;5117521;28;20225;-72
2022/07/17 11:10:36;;;;;;;2.25;1.65;;;24.50;99.90;;;;;;5115843;28;20200;-72
2022/07/17 11:13:16;;;;;;;2.45;1.52;;;24.70;99.90;;;;;;5117457;28;20193;-72
2022/07/17 11:15:47;;;;;;;2.10;1.60;;;24.80;99.90;;;;;;5115078;28;20160;-72
2022/07/17 11:18:19;;;;;;;2.15;1.40;;;25.00;99.90;;;;;;5116990;27;20200;-72
2022/07/17 11:20:58;;;;;;;6.15;1.45;;;25.20;99.90;;;;;;5115479;28;20204;-73
2022/07/17 11:23:27;;;;;;;4.40;1.70;;;25.40;99.90;;;;;;5117591;28;20184;-71
2022/07/17 11:26:00;;;;;;;3.28;1.52;;;25.50;99.90;;;;;;5117028;28;20667;-73
2022/07/17 11:28:40;;;;;;;10.00;1.95;;;25.50;99.90;;;;;;5117483;28;20172;-72
2022/07/17 11:31:27;;;;;;;2.88;1.50;;;25.20;99.90;;;;;;5116199;28;20200;-71
2022/07/17 11:34:05;;;;;;;9.07;1.88;;;25.20;99.90;;;;;;5116166;28;20227;-71
2022/07/17 11:36:32;;;;;;;3.03;1.50;;;25.20;99.90;;;;;;5116193;28;20486;-70
2022/07/17 11:39:01;;;;;;;4.22;1.60;;;25.30;99.90;;;;;;5114594;28;20179;-71
2022/07/17 11:41:35;;;;;;;4.80;1.70;;;25.30;99.90;;;;;;5115801;28;20192;-74
2022/07/17 11:44:03;;;;;;;3.45;1.80;;;25.40;99.90;;;;;;5114569;28;20644;-74
2022/07/17 11:46:31;;;;;;;4.00;1.98;;;25.30;99.90;;;;;;5115717;28;20184;-74
2022/07/17 11:48:57;;;;;;;7.07;2.08;;;25.40;99.90;;;;;;5115794;28;20180;-74
2022/07/17 11:51:34;;;;;;;3.83;1.77;;;25.70;99.90;;;;;;5114983;28;20722;-73
2022/07/17 11:54:13;;;;;;;3.10;1.50;;;25.80;99.90;;;;;;5115314;28;20208;-73
2022/07/17 11:56:40;;;;;;;3.25;1.50;;;26.00;99.90;;;;;;5116900;28;20321;-73
2022/07/17 11:59:07;;;;;;;2.63;1.50;;;26.30;99.90;;;;;;5116912;28;20269;-73
2022/07/17 12:01:44;;;;;;;6.90;1.45;;;26.60;99.90;;;;;;5117763;28;20196;-73
2022/07/17 12:04:14;;;;;;;6.28;1.83;;;26.80;99.90;;;;;;5115405;28;20561;-73
2022/07/17 12:06:41;;;;;;;4.18;1.65;;;27.00;99.90;;;;;;5116883;28;20189;-73
2022/07/17 12:09:07;;;;;;;3.03;1.63;;;26.90;99.90;;;;;;5115622;27;20229;-73
2022/07/17 12:11:48;;;;;;;2.88;1.40;;;26.70;99.90;;;;;;5116439;28;20237;-73
2022/07/17 12:14:14;;;;;;;1.95;1.45;;;26.80;99.90;;;;;;5115053;28;20203;-73
2022/07/17 12:16:40;;;;;;;3.58;1.60;;;26.90;99.90;;;;;;5116205;28;20256;-73
2022/07/17 12:19:11;;;;;;;4.80;1.42;;;26.90;99.90;;;;;;5116164;28;20231;-73
2022/07/17 12:22:06;;;;;;;3.67;1.40;;;27.20;99.90;;;;;;5116058;28;20188;-73
2022/07/17 12:24:36;;;;;;;2.35;1.65;;;27.20;99.90;;;;;;5102149;28;20185;-73
2022/07/17 12:27:06;;;;;;;5.55;1.70;;;27.00;99.90;;;;;;5116254;28;20184;-73
2022/07/17 12:29:31;;;;;;;3.22;1.52;;;27.50;99.90;;;;;;5116195;28;20168;-73
2022/07/17 12:32:11;;;;;;;2.92;1.63;;;27.80;99.90;;;;;;5116070;28;20191;-74
2022/07/17 12:34:49;;;;;;;4.05;1.83;;;28.10;99.90;;;;;;5115363;28;20161;-73
2022/07/17 12:37:17;;;;;;;2.08;1.42;;;28.40;99.90;;;;;;5115599;28;20152;-73
2022/07/17 12:39:44;;;;;;;3.72;1.60;;;28.10;98.80;;;;;;5115533;28;20168;-73
2022/07/17 12:42:10;;;;;;;4.03;1.25;;;27.90;97.80;;;;;;5115782;28;20192;-73
2022/07/17 12:44:37;;;;;;;6.18;2.00;;;28.20;98.50;;;;;;5116023;28;20251;-73
2022/07/17 12:47:03;;;;;;;7.57;1.73;;;28.30;97.20;;;;;;5115206;28;20721;-73
2022/07/17 12:49:30;;;;;;;3.53;1.40;;;28.50;97.90;;;;;;5115190;28;20255;-73
2022/07/17 12:51:56;;;;;;;5.28;1.70;;;28.80;98.90;;;;;;5114943;28;20209;-73
2022/07/17 12:54:21;;;;;;;3.45;1.80;;;28.80;94.80;;;;;;5113609;28;20200;-73